createdAt,value
2023-04-20T00:01:58.871Z,3.25
2023-04-20T00:07:00.529Z,3.43
2023-04-20T00:12:02.179Z,3.70
2023-04-20T00:17:03.946Z,3.53
2023-04-20T00:22:05.729Z,4.15
2023-04-20T00:27:07.340Z,3.80
2023-04-20T00:32:08.922Z,4.00
2023-04-20T00:37:10.537Z,4.03
2023-04-20T00:42:12.128Z,4.18
2023-04-20T00:47:13.686Z,4.07
2023-04-20T00:52:15.551Z,4.32
2023-04-20T00:57:19.047Z,4.70
2023-04-20T01:02:20.752Z,4.23
2023-04-20T01:07:22.654Z,4.10
2023-04-20T01:12:24.327Z,4.80
2023-04-20T01:17:25.941Z,4.53
2023-04-20T01:22:27.578Z,6.25
2023-04-20T01:27:29.201Z,4.80
2023-04-20T01:32:31.703Z,4.70
2023-04-20T01:37:34.186Z,4.32
2023-04-20T01:42:38.084Z,4.70
2023-04-20T01:47:39.647Z,4.13
2023-04-20T01:52:41.912Z,3.77
2023-04-20T01:57:44.768Z,4.43
2023-04-20T02:02:46.491Z,4.35
2023-04-20T02:07:48.182Z,4.57
2023-04-20T02:12:50.464Z,4.30
2023-04-20T02:17:52.451Z,4.68
2023-04-20T02:22:54.430Z,4.63
2023-04-20T02:27:56.156Z,4.43
2023-04-20T02:32:57.850Z,4.67
2023-04-20T02:37:59.586Z,5.00
2023-04-20T02:43:01.225Z,5.00
2023-04-20T02:48:03.651Z,4.47
2023-04-20T02:53:06.753Z,4.63
2023-04-20T02:58:11.165Z,5.20
2023-04-20T03:03:33.159Z,5.40
2023-04-20T03:08:35.410Z,5.83
2023-04-20T03:13:55.710Z,6.17
2023-04-20T03:18:57.460Z,6.17
2023-04-20T03:24:00.177Z,6.60
2023-04-20T03:29:02.346Z,6.67
2023-04-20T03:34:04.898Z,7.83
2023-04-20T03:39:07.053Z,7.70
2023-04-20T03:44:08.640Z,8.30
2023-04-20T03:49:11.921Z,8.20
2023-04-20T03:54:15.424Z,8.80
2023-04-20T03:59:17.783Z,8.87
2023-04-20T04:04:24.163Z,9.40
2023-04-20T04:09:26.621Z,9.77
2023-04-20T04:14:30.128Z,8.13
2023-04-20T04:19:32.652Z,9.00
2023-04-20T04:24:37.743Z,9.57
2023-04-20T04:29:42.620Z,9.67
2023-04-20T04:34:50.270Z,10.70
2023-04-20T04:39:52.277Z,11.97
2023-04-20T04:45:01.840Z,11.10
2023-04-20T04:50:07.195Z,10.67
2023-04-20T04:55:09.782Z,11.27
2023-04-20T05:00:12.797Z,10.73
2023-04-20T05:05:14.847Z,11.23
2023-04-20T05:10:16.695Z,9.97
2023-04-20T05:15:18.618Z,9.53
2023-04-20T05:20:20.694Z,10.30
2023-04-20T05:25:22.433Z,9.47
2023-04-20T05:30:24.034Z,9.30
2023-04-20T05:35:25.617Z,8.90
2023-04-20T05:40:27.209Z,9.40
2023-04-20T05:45:28.920Z,8.10
2023-04-20T05:50:31.142Z,8.27
2023-04-20T05:55:33.332Z,8.67
2023-04-20T06:00:35.658Z,8.77
2023-04-20T06:05:37.391Z,9.10
2023-04-20T06:10:39.825Z,7.33
2023-04-20T06:15:41.614Z,9.57
2023-04-20T06:20:44.144Z,9.93
2023-04-20T06:25:45.698Z,9.13
2023-04-20T06:30:47.293Z,9.23
2023-04-20T06:35:48.853Z,9.47
2023-04-20T06:40:50.571Z,8.73
2023-04-20T06:45:52.111Z,8.90
2023-04-20T06:50:53.712Z,9.47
2023-04-20T06:55:55.750Z,10.23
2023-04-20T07:00:57.404Z,9.33
2023-04-20T07:05:59.010Z,10.13
2023-04-20T07:11:00.916Z,11.60
2023-04-20T07:16:02.794Z,9.10
2023-04-20T07:21:04.419Z,9.17
2023-04-20T07:26:06.254Z,9.07
2023-04-20T07:31:07.792Z,9.50
2023-04-20T07:36:09.588Z,8.20
2023-04-20T07:41:11.625Z,9.57
2023-04-20T07:46:20.883Z,10.03
2023-04-20T07:51:22.512Z,10.33
2023-04-20T07:56:24.110Z,11.47
2023-04-20T08:01:26.268Z,10.87
2023-04-20T08:06:28.036Z,11.23
2023-04-20T08:11:29.639Z,10.85
2023-04-20T08:16:31.337Z,10.88
2023-04-20T08:21:32.917Z,11.27
2023-04-20T08:26:35.108Z,11.20
2023-04-20T08:31:37.051Z,12.87
2023-04-20T08:36:38.674Z,11.50
2023-04-20T08:41:40.350Z,11.70
2023-04-20T08:46:44.029Z,13.20
2023-04-20T08:51:48.289Z,11.57
2023-04-20T08:56:49.905Z,11.57
2023-04-20T09:01:51.584Z,11.85
2023-04-20T09:06:55.683Z,12.23
2023-04-20T09:12:04.873Z,12.85
2023-04-20T09:17:06.473Z,12.23
2023-04-20T09:22:08.069Z,12.95
2023-04-20T09:27:19.095Z,12.63
2023-04-20T09:32:25.395Z,14.60
2023-04-20T09:37:27.121Z,12.75
2023-04-20T09:42:28.952Z,13.10
2023-04-20T09:47:30.952Z,12.55
2023-04-20T09:52:33.404Z,13.00
2023-04-20T09:57:35.539Z,13.07
2023-04-20T10:02:37.863Z,13.15
2023-04-20T10:07:39.551Z,12.13
2023-04-20T10:12:51.207Z,13.27
2023-04-20T10:17:53.270Z,13.73
2023-04-20T10:23:07.475Z,12.77
2023-04-20T10:28:10.904Z,14.40
2023-04-20T10:33:13.271Z,15.45
2023-04-20T10:38:16.373Z,15.80
2023-04-20T10:43:21.098Z,15.95
2023-04-20T10:48:22.717Z,16.73
2023-04-20T10:53:24.351Z,15.15
2023-04-20T10:58:26.209Z,14.60
2023-04-20T11:03:29.352Z,14.50
2023-04-20T11:08:40.806Z,15.03
2023-04-20T11:13:42.420Z,14.55
2023-04-20T11:18:50.330Z,14.98
2023-04-20T11:23:51.936Z,15.05
2023-04-20T11:28:55.969Z,15.20
2023-04-20T11:33:58.492Z,17.20
2023-04-20T11:39:09.995Z,14.63
2023-04-20T11:44:11.638Z,16.48
2023-04-20T11:49:13.518Z,16.40
2023-04-20T11:54:15.595Z,16.13
2023-04-20T11:59:20.152Z,16.35
2023-04-20T12:04:22.452Z,15.90
2023-04-20T12:09:24.298Z,16.38
2023-04-20T12:14:27.219Z,17.98
2023-04-20T12:19:28.826Z,19.50
2023-04-20T12:24:30.468Z,16.05
2023-04-20T12:29:33.111Z,17.42
2023-04-20T12:34:34.733Z,18.35
2023-04-20T12:39:36.548Z,18.05
2023-04-20T12:44:38.101Z,17.13
2023-04-20T12:49:39.669Z,16.02
2023-04-20T12:54:43.893Z,16.98
2023-04-20T12:59:48.589Z,19.52
2023-04-20T13:04:50.677Z,15.48
2023-04-20T13:09:52.200Z,15.38
2023-04-20T13:14:53.744Z,17.55
2023-04-20T13:19:55.336Z,15.88
2023-04-20T13:24:56.946Z,15.13
2023-04-20T13:29:59.457Z,16.88
2023-04-20T13:35:01.043Z,17.67
2023-04-20T13:40:02.675Z,14.95
2023-04-20T13:45:05.286Z,16.60
2023-04-20T13:50:10.661Z,15.40
2023-04-20T13:55:12.278Z,15.43
2023-04-20T14:00:14.584Z,15.25
2023-04-20T14:05:16.365Z,15.20
2023-04-20T14:10:18.012Z,15.93
2023-04-20T14:15:19.777Z,15.20
2023-04-20T14:20:21.464Z,15.90
2023-04-20T14:25:23.103Z,15.35
2023-04-20T14:30:24.895Z,15.23
2023-04-20T14:35:28.222Z,16.42
2023-04-20T14:40:30.635Z,15.95
2023-04-20T14:45:32.200Z,18.67
2023-04-20T14:50:33.815Z,15.25
2023-04-20T14:55:35.452Z,17.85
2023-04-20T15:00:36.989Z,16.60
2023-04-20T15:05:38.750Z,16.52
2023-04-20T15:10:40.371Z,16.90
2023-04-20T15:20:51.428Z,15.70
2023-04-20T15:25:53.005Z,17.10
2023-04-20T15:30:54.594Z,15.07
2023-04-20T15:35:56.253Z,15.65
2023-04-20T15:40:58.780Z,16.67
2023-04-20T15:46:00.462Z,17.05
2023-04-20T15:51:04.003Z,16.42
2023-04-20T15:56:05.684Z,15.35
2023-04-20T16:01:07.439Z,17.20
2023-04-20T16:06:09.048Z,15.80
2023-04-20T16:11:10.685Z,16.77
2023-04-20T16:16:12.312Z,18.48
2023-04-20T16:21:14.479Z,16.42
2023-04-20T16:26:16.590Z,14.73
2023-04-20T16:31:18.313Z,14.85
2023-04-20T16:36:20.756Z,15.57
2023-04-20T16:41:23.082Z,10.82
2023-04-20T16:46:24.806Z,12.73
2023-04-20T16:51:27.218Z,17.95
2023-04-20T16:56:28.877Z,20.40
2023-04-20T17:01:30.549Z,12.98
2023-04-20T17:06:32.206Z,11.57
2023-04-20T17:11:38.773Z,10.63
2023-04-20T17:16:40.429Z,13.48
2023-04-20T17:21:43.980Z,10.95
2023-04-20T17:26:46.418Z,12.05
2023-04-20T17:31:48.009Z,10.52
2023-04-20T17:36:49.612Z,10.93
2023-04-20T17:41:51.186Z,11.35
2023-04-20T17:46:52.764Z,11.32
2023-04-20T17:51:54.499Z,11.57
2023-04-20T17:56:57.983Z,12.85
2023-04-20T18:01:59.730Z,11.38
2023-04-20T18:07:01.472Z,14.57
2023-04-20T18:12:03.224Z,12.85
2023-04-20T18:17:04.881Z,14.50
2023-04-20T18:22:07.431Z,13.57
2023-04-20T18:27:09.255Z,16.15
2023-04-20T18:32:10.817Z,13.07
2023-04-20T18:37:12.556Z,16.27
2023-04-20T18:42:14.147Z,16.50
2023-04-20T18:47:17.047Z,17.17
2023-04-20T18:52:19.373Z,16.60
2023-04-20T18:57:25.971Z,17.60
2023-04-20T19:02:27.763Z,16.52
2023-04-20T19:07:29.542Z,13.57
2023-04-20T19:12:32.477Z,14.23
2023-04-20T19:17:34.917Z,16.45
2023-04-20T19:22:36.519Z,13.27
2023-04-20T19:27:38.142Z,15.70
2023-04-20T19:32:39.983Z,14.48
2023-04-20T19:37:41.628Z,16.58
2023-04-20T19:42:43.311Z,14.88
2023-04-20T19:47:45.357Z,13.85
2023-04-20T19:52:46.975Z,14.32
2023-04-20T19:57:48.696Z,14.50
2023-04-20T20:02:50.535Z,13.02
2023-04-20T20:07:52.768Z,13.88
2023-04-20T20:12:54.346Z,16.50
2023-04-20T20:17:58.236Z,14.65
2023-04-20T20:23:00.398Z,20.25
2023-04-20T20:28:02.059Z,17.45
2023-04-20T20:33:03.913Z,14.68
2023-04-20T20:38:08.899Z,15.07
2023-04-20T20:43:10.639Z,17.42
2023-04-20T20:48:12.351Z,16.58
2023-04-20T20:53:14.997Z,20.05
2023-04-20T20:58:16.519Z,18.45
2023-04-20T21:03:18.897Z,16.05
2023-04-20T21:08:20.701Z,16.05
2023-04-20T21:13:22.283Z,18.50
2023-04-20T21:18:23.879Z,17.00
2023-04-20T21:23:25.847Z,19.35
2023-04-20T21:28:27.438Z,16.08
2023-04-20T21:33:29.114Z,17.02
2023-04-20T21:38:30.722Z,15.30
2023-04-20T21:43:32.323Z,17.23
2023-04-20T21:48:33.916Z,16.83
2023-04-20T21:53:35.724Z,16.00
2023-04-20T21:58:37.358Z,20.42
2023-04-20T22:03:39.060Z,18.15
2023-04-20T22:08:41.914Z,18.05
2023-04-20T22:13:44.578Z,20.23
2023-04-20T22:18:46.240Z,19.95
2023-04-20T22:23:47.813Z,22.85
2023-04-20T22:28:49.612Z,21.42
2023-04-20T22:33:51.183Z,20.65
2023-04-20T22:38:52.843Z,20.38
2023-04-20T22:43:54.482Z,17.58
2023-04-20T22:48:56.768Z,19.15
2023-04-20T22:54:00.287Z,18.17
2023-04-20T22:59:02.064Z,22.13
2023-04-20T23:04:04.003Z,16.70
2023-04-20T23:09:08.561Z,16.75
2023-04-20T23:14:10.861Z,17.50
2023-04-20T23:19:12.436Z,16.88
2023-04-20T23:24:14.039Z,16.95
2023-04-20T23:29:15.954Z,17.92
2023-04-20T23:34:17.652Z,19.48
2023-04-20T23:39:20.248Z,18.38
2023-04-20T23:44:22.018Z,17.30
2023-04-20T23:49:23.623Z,18.60
2023-04-20T23:54:25.424Z,17.95
2023-04-20T23:59:27.058Z,16.73
